createdAt,value
2022-10-01T00:00:05.004Z,7.07
2022-10-01T00:03:05.009Z,7.08
2022-10-01T00:06:05.023Z,7.07
2022-10-01T00:09:05.012Z,7.07
2022-10-01T00:12:05.012Z,7.02
2022-10-01T00:15:06.226Z,7.07
2022-10-01T00:18:05.014Z,7.07
2022-10-01T00:21:05.022Z,7.06
2022-10-01T00:24:05.056Z,7.06
2022-10-01T00:27:05.034Z,7.07
2022-10-01T00:30:05.039Z,7.03
2022-10-01T00:33:05.041Z,7.06
2022-10-01T00:36:05.060Z,7.07
2022-10-01T00:39:05.055Z,7.07
2022-10-01T00:42:05.088Z,7.07
2022-10-01T00:45:05.063Z,7.11
2022-10-01T00:48:05.068Z,7.1
2022-10-01T00:51:05.072Z,7.13
2022-10-01T00:54:05.086Z,7.13
2022-10-01T00:57:05.090Z,7.12
2022-10-01T01:00:05.119Z,7.16
2022-10-01T01:03:05.104Z,7.14
2022-10-01T01:06:05.112Z,7.19
2022-10-01T01:09:05.111Z,7.19
2022-10-01T01:12:05.115Z,7.15
2022-10-01T01:15:05.122Z,7.17
2022-10-01T01:18:05.150Z,7.17
2022-10-01T01:21:05.135Z,7.17
2022-10-01T01:24:05.132Z,7.17
2022-10-01T01:27:05.139Z,7.17
2022-10-01T01:30:05.146Z,7.18
2022-10-01T01:33:05.155Z,7.18
2022-10-01T01:36:05.193Z,7.17
2022-10-01T01:39:05.163Z,7.18
2022-10-01T01:42:05.168Z,7.19
2022-10-01T01:45:05.175Z,7.16
2022-10-01T01:48:05.272Z,7.21
2022-10-01T01:51:05.192Z,7.21
2022-10-01T01:54:05.226Z,7.18
2022-10-01T01:57:05.204Z,7.19
2022-10-01T02:00:05.204Z,7.2
2022-10-01T02:03:05.213Z,7.2
2022-10-01T02:06:05.222Z,7.21
2022-10-01T02:09:05.222Z,7.18
2022-10-01T02:12:05.251Z,7.16
2022-10-01T02:15:05.239Z,7.14
2022-10-01T02:18:05.362Z,7.13
2022-10-01T02:21:05.255Z,7.11
2022-10-01T02:24:05.254Z,7.08
2022-10-01T02:27:05.263Z,7.1
2022-10-01T02:30:05.290Z,7.08
2022-10-01T02:33:05.280Z,7.09
2022-10-01T02:36:05.276Z,7.1
2022-10-01T02:39:05.289Z,7.12
2022-10-01T02:42:05.304Z,7.13
2022-10-01T02:45:05.296Z,7.13
2022-10-01T02:48:05.329Z,7.14
2022-10-01T02:51:05.311Z,7.14
2022-10-01T02:54:05.313Z,7.19
2022-10-01T02:57:05.321Z,7.18
2022-10-01T03:00:05.329Z,7.18
2022-10-01T03:03:05.340Z,7.18
2022-10-01T03:06:05.365Z,7.17
2022-10-01T03:09:05.367Z,7.23
2022-10-01T03:12:05.360Z,7.23
2022-10-01T03:15:05.366Z,7.22
2022-10-01T03:18:05.385Z,7.22
2022-10-01T03:21:05.380Z,7.27
2022-10-01T03:24:05.415Z,7.27
2022-10-01T03:27:05.395Z,7.34
2022-10-01T03:30:05.408Z,7.35
2022-10-01T03:33:05.410Z,7.37
2022-10-01T03:36:05.420Z,7.42
2022-10-01T03:39:05.429Z,7.43
2022-10-01T03:42:05.459Z,7.45
2022-10-01T03:45:05.439Z,7.47
2022-10-01T03:48:05.444Z,7.47
2022-10-01T03:51:05.456Z,7.45
2022-10-01T03:54:05.467Z,7.44
2022-10-01T03:57:05.476Z,7.48
2022-10-01T04:00:05.509Z,7.48
2022-10-01T04:03:05.575Z,7.47
2022-10-01T04:06:05.515Z,7.47
2022-10-01T04:09:05.518Z,7.48
2022-10-01T04:12:05.515Z,7.49
2022-10-01T04:15:05.547Z,7.49
2022-10-01T04:18:05.574Z,7.49
2022-10-01T04:21:05.555Z,7.49
2022-10-01T04:24:05.561Z,7.49
2022-10-01T04:27:05.565Z,7.49
2022-10-01T04:30:05.569Z,7.52
2022-10-01T04:33:05.585Z,7.52
2022-10-01T04:36:05.613Z,7.52
2022-10-01T04:39:05.593Z,7.53
2022-10-01T04:42:05.611Z,7.53
2022-10-01T04:45:05.623Z,7.53
2022-10-01T04:48:05.630Z,7.54
2022-10-01T04:51:05.639Z,7.53
2022-10-01T04:54:05.675Z,7.58
2022-10-01T04:57:05.657Z,7.58
2022-10-01T05:00:05.672Z,7.57
2022-10-01T05:03:05.690Z,7.55
2022-10-01T05:06:05.693Z,7.54
2022-10-01T05:09:05.708Z,7.56
2022-10-01T05:12:05.740Z,7.55
2022-10-01T05:15:05.727Z,7.58
2022-10-01T05:18:05.746Z,7.58
2022-10-01T05:21:05.751Z,7.59
2022-10-01T05:24:05.758Z,7.6
2022-10-01T05:27:05.767Z,7.61
2022-10-01T05:30:05.801Z,7.62
2022-10-01T05:33:05.788Z,7.64
2022-10-01T05:36:05.795Z,7.6
2022-10-01T05:39:05.809Z,7.6
2022-10-01T05:42:06.603Z,7.67
2022-10-01T05:45:05.826Z,7.64
2022-10-01T05:48:05.855Z,7.7
2022-10-01T05:51:05.844Z,7.73
2022-10-01T05:54:05.854Z,7.79
2022-10-01T05:57:05.862Z,7.79
2022-10-01T06:00:05.900Z,7.85
2022-10-01T06:03:06.004Z,7.91
2022-10-01T06:06:05.921Z,7.92
2022-10-01T06:09:05.904Z,7.99
2022-10-01T06:12:05.909Z,7.99
2022-10-01T06:15:05.929Z,8.03
2022-10-01T06:18:05.932Z,8.05
2022-10-01T06:21:05.944Z,8.1
2022-10-01T06:24:05.981Z,8.14
2022-10-01T06:27:05.960Z,8.14
2022-10-01T06:30:05.976Z,8.17
2022-10-01T06:33:05.979Z,8.2
2022-10-01T06:36:05.987Z,8.26
2022-10-01T06:39:06.004Z,8.29
2022-10-01T06:42:06.036Z,8.31
2022-10-01T06:45:06.018Z,8.28
2022-10-01T06:48:06.023Z,8.31
2022-10-01T06:51:06.041Z,8.33
2022-10-01T06:54:06.050Z,8.36
2022-10-01T06:57:06.060Z,8.38
2022-10-01T07:00:06.090Z,8.37
2022-10-01T07:03:06.075Z,8.43
2022-10-01T07:06:06.084Z,8.45
2022-10-01T07:09:06.093Z,8.45
2022-10-01T07:12:06.111Z,8.47
2022-10-01T07:15:06.106Z,8.47
2022-10-01T07:18:06.138Z,8.47
2022-10-01T07:21:06.131Z,8.53
2022-10-01T07:24:06.125Z,8.54
2022-10-01T07:27:07.466Z,8.51
2022-10-01T07:30:06.150Z,8.56
2022-10-01T07:33:06.159Z,8.56
2022-10-01T07:36:06.192Z,8.56
2022-10-01T07:39:06.181Z,8.55
2022-10-01T07:42:06.183Z,8.56
2022-10-01T07:45:06.195Z,8.57
2022-10-01T07:48:06.203Z,8.57
2022-10-01T07:51:06.216Z,8.64
2022-10-01T07:54:06.325Z,8.65
2022-10-01T07:57:06.230Z,8.71
2022-10-01T08:00:06.228Z,8.7
2022-10-01T08:03:06.235Z,8.69
2022-10-01T08:06:06.251Z,8.73
2022-10-01T08:09:06.254Z,8.73
2022-10-01T08:12:06.293Z,8.77
2022-10-01T08:15:06.254Z,8.77
2022-10-01T08:18:06.267Z,8.72
2022-10-01T08:21:06.296Z,8.78
2022-10-01T08:24:06.278Z,8.79
2022-10-01T08:27:06.307Z,8.8
2022-10-01T08:30:06.316Z,8.82
2022-10-01T08:33:06.299Z,8.82
2022-10-01T08:36:06.308Z,8.84
2022-10-01T08:39:06.315Z,8.9
2022-10-01T08:42:06.318Z,8.94
2022-10-01T08:45:06.329Z,8.99
2022-10-01T08:48:06.360Z,8.98
2022-10-01T08:51:06.332Z,9.02
2022-10-01T08:54:06.335Z,9.01
2022-10-01T08:57:06.344Z,9
2022-10-01T09:00:06.341Z,9.01
2022-10-01T09:03:06.334Z,9.01
2022-10-01T09:06:06.362Z,9.03
2022-10-01T09:09:06.344Z,8.99
2022-10-01T09:12:06.355Z,9.06
2022-10-01T09:15:06.354Z,9.07
2022-10-01T09:18:06.485Z,9.06
2022-10-01T09:21:06.366Z,9.05
2022-10-01T09:24:06.383Z,9.04
2022-10-01T09:27:06.361Z,9.08
2022-10-01T09:30:06.366Z,9.06
2022-10-01T09:33:06.367Z,9.11
2022-10-01T09:36:06.373Z,9.16
2022-10-01T09:39:06.372Z,9.14
2022-10-01T09:42:06.389Z,9.18
2022-10-01T09:45:06.365Z,9.21
2022-10-01T09:48:06.366Z,9.26
2022-10-01T09:51:06.375Z,9.29
2022-10-01T09:54:06.371Z,9.31
2022-10-01T09:57:06.371Z,9.4
2022-10-01T10:00:06.400Z,9.42
2022-10-01T10:03:06.620Z,9.45
2022-10-01T10:06:06.378Z,9.42
2022-10-01T10:09:06.392Z,9.37
2022-10-01T10:12:06.403Z,9.34
2022-10-01T10:15:06.408Z,9.35
2022-10-01T10:18:06.449Z,9.42
2022-10-01T10:21:06.457Z,9.44
2022-10-01T10:24:06.457Z,9.44
2022-10-01T10:27:06.479Z,9.45
2022-10-01T10:30:06.503Z,9.55
2022-10-01T10:33:06.502Z,9.72
2022-10-01T10:36:06.544Z,9.81
2022-10-01T10:39:06.540Z,9.86
2022-10-01T10:42:06.557Z,10.04
2022-10-01T10:45:06.591Z,10.29
2022-10-01T10:48:06.608Z,10.11
2022-10-01T10:51:06.611Z,10.08
2022-10-01T10:54:06.660Z,10.15
2022-10-01T10:57:06.644Z,10.25
2022-10-01T11:00:06.655Z,9.99
2022-10-01T11:03:06.674Z,10.12
2022-10-01T11:06:06.689Z,10.19
2022-10-01T11:09:06.704Z,10.3
2022-10-01T11:12:06.755Z,10.15
2022-10-01T11:15:06.746Z,10
2022-10-01T11:18:06.754Z,9.96
2022-10-01T11:21:06.774Z,9.96
2022-10-01T11:24:06.787Z,9.92
2022-10-01T11:27:06.817Z,9.96
2022-10-01T11:30:06.852Z,9.9
2022-10-01T11:33:06.844Z,10.01
2022-10-01T11:36:06.867Z,10.01
2022-10-01T11:39:06.883Z,10.02
2022-10-01T11:42:06.921Z,9.85
2022-10-01T11:45:06.927Z,9.86
2022-10-01T11:48:06.964Z,9.79
2022-10-01T11:51:06.958Z,9.8
2022-10-01T11:54:06.978Z,9.8
2022-10-01T11:57:06.988Z,9.86
2022-10-01T12:00:07.010Z,9.86
2022-10-01T12:03:07.024Z,9.9
2022-10-01T12:06:07.066Z,9.95
2022-10-01T12:09:07.059Z,9.97
2022-10-01T12:12:07.077Z,10.03
2022-10-01T12:15:07.301Z,10.07
2022-10-01T12:18:07.126Z,10.12
2022-10-01T12:21:07.152Z,10.19
2022-10-01T12:24:07.352Z,10.33
2022-10-01T12:27:07.175Z,10.38
2022-10-01T12:30:07.199Z,10.41
2022-10-01T12:33:07.227Z,10.4
2022-10-01T12:36:07.245Z,10.38
2022-10-01T12:39:07.262Z,10.44
2022-10-01T12:42:07.309Z,10.53
2022-10-01T12:45:07.306Z,10.54
2022-10-01T12:48:07.322Z,10.57
2022-10-01T12:51:07.343Z,10.47
2022-10-01T12:54:10.457Z,10.42
2022-10-01T12:57:07.380Z,10.47
2022-10-01T13:00:07.481Z,10.34
2022-10-01T13:03:07.424Z,10.22
2022-10-01T13:06:07.461Z,10.17
2022-10-01T13:09:07.480Z,10.19
2022-10-01T13:12:07.503Z,10.31
2022-10-01T13:15:07.512Z,10.4
2022-10-01T13:18:07.564Z,10.34
2022-10-01T13:21:07.564Z,10.33
2022-10-01T13:24:07.587Z,10.36
2022-10-01T13:27:07.607Z,10.44
2022-10-01T13:30:07.699Z,10.46
2022-10-01T13:33:07.641Z,10.52
2022-10-01T13:36:07.696Z,10.56
2022-10-01T13:39:07.693Z,10.66
2022-10-01T13:42:07.695Z,10.66
2022-10-01T13:45:07.712Z,10.45
2022-10-01T13:48:07.726Z,10.43
2022-10-01T13:51:07.747Z,10.42
2022-10-01T13:54:07.808Z,10.23
2022-10-01T13:57:07.790Z,10.23
2022-10-01T14:00:07.816Z,10.26
2022-10-01T14:03:07.867Z,10.32
2022-10-01T14:06:07.894Z,10.51
2022-10-01T14:09:07.876Z,10.56
2022-10-01T14:12:07.911Z,10.59
2022-10-01T14:15:07.908Z,10.55
2022-10-01T14:18:07.926Z,10.36
2022-10-01T14:21:07.935Z,10.35
2022-10-01T14:24:07.970Z,10.39
2022-10-01T14:27:07.966Z,10.36
2022-10-01T14:30:07.996Z,10.32
2022-10-01T14:33:07.988Z,10.25
2022-10-01T14:36:08.002Z,10.13
2022-10-01T14:39:08.025Z,10.16
2022-10-01T14:42:16.411Z,10.19
2022-10-01T14:45:08.051Z,10.23
2022-10-01T14:48:08.103Z,10.18
2022-10-01T14:51:08.104Z,10.4
2022-10-01T14:54:08.134Z,10.39
2022-10-01T14:57:08.128Z,10.37
2022-10-01T15:00:08.157Z,10.41
2022-10-01T15:03:08.188Z,10.38
2022-10-01T15:06:08.216Z,10.36
2022-10-01T15:09:08.223Z,10.37
2022-10-01T15:12:08.238Z,10.38
2022-10-01T15:15:08.244Z,10.36
2022-10-01T15:18:08.267Z,10.34
2022-10-01T15:21:08.292Z,9.78
2022-10-01T15:24:08.363Z,9.63
2022-10-01T15:27:08.331Z,9.76
2022-10-01T15:30:08.343Z,9.73
2022-10-01T15:33:08.358Z,9.67
2022-10-01T15:36:08.386Z,9.66
2022-10-01T15:39:08.415Z,9.68
2022-10-01T15:42:08.453Z,9.7
2022-10-01T15:45:08.459Z,9.68
2022-10-01T15:48:08.472Z,9.7
2022-10-01T15:51:08.500Z,9.73
2022-10-01T15:54:08.533Z,9.73
2022-10-01T15:57:08.536Z,9.72
2022-10-01T16:00:08.596Z,9.71
2022-10-01T16:03:08.579Z,9.67
2022-10-01T16:06:08.594Z,9.67
2022-10-01T16:09:08.624Z,9.67
2022-10-01T16:12:08.638Z,9.64
2022-10-01T16:15:08.653Z,9.56
2022-10-01T16:18:08.689Z,9.55
2022-10-01T16:21:08.677Z,9.47
2022-10-01T16:24:08.720Z,9.41
2022-10-01T16:27:08.729Z,9.4
2022-10-01T16:30:08.746Z,9.34
2022-10-01T16:33:08.768Z,9.29
2022-10-01T16:36:08.822Z,9.26
2022-10-01T16:39:08.827Z,9.27
2022-10-01T16:42:23.134Z,9.21
2022-10-01T16:45:08.863Z,9.18
2022-10-01T16:48:08.873Z,9.23
2022-10-01T16:51:08.902Z,9.16
2022-10-01T16:54:08.953Z,9.17
2022-10-01T16:57:08.937Z,9.12
2022-10-01T17:00:08.958Z,9.15
2022-10-01T17:03:08.974Z,9.18
2022-10-01T17:06:08.988Z,9.12
2022-10-01T17:09:09.013Z,9.13
2022-10-01T17:12:09.044Z,9.16
2022-10-01T17:15:09.035Z,9.16
2022-10-01T17:18:09.066Z,9.18
2022-10-01T17:21:09.078Z,9.18
2022-10-01T17:24:09.122Z,9.18
2022-10-01T17:27:09.128Z,9.22
2022-10-01T17:30:09.175Z,9.14
2022-10-01T17:33:09.179Z,9.17
2022-10-01T17:36:09.211Z,9.25
2022-10-01T17:39:09.243Z,9.31
2022-10-01T17:42:09.247Z,9.31
2022-10-01T17:45:09.263Z,9.3
2022-10-01T17:48:09.306Z,9.24
2022-10-01T17:51:09.300Z,9.25
2022-10-01T17:54:09.330Z,9.33
2022-10-01T17:57:09.342Z,9.35
2022-10-01T18:00:09.357Z,9.42
2022-10-01T18:03:09.481Z,9.49
2022-10-01T18:06:09.408Z,9.48
2022-10-01T18:09:09.424Z,9.48
2022-10-01T18:12:09.470Z,9.46
2022-10-01T18:15:09.468Z,9.44
2022-10-01T18:21:09.525Z,9.39
2022-10-01T18:24:09.593Z,9.38
2022-10-01T18:27:09.587Z,9.39
2022-10-01T18:30:09.612Z,9.39
2022-10-01T18:33:09.638Z,9.35
2022-10-01T18:36:09.662Z,9.34
2022-10-01T18:39:09.693Z,9.36
2022-10-01T18:42:09.732Z,9.35
2022-10-01T18:45:09.720Z,9.36
2022-10-01T18:48:09.746Z,9.37
2022-10-01T18:51:09.772Z,9.33
2022-10-01T18:54:09.799Z,9.32
2022-10-01T18:57:09.803Z,9.32
2022-10-01T19:00:09.844Z,9.34
2022-10-01T19:03:09.848Z,9.35
2022-10-01T19:06:09.872Z,9.42
2022-10-01T19:09:09.918Z,9.41
2022-10-01T19:12:09.931Z,9.4
2022-10-01T19:15:09.964Z,9.4
2022-10-01T19:18:10.008Z,9.38
2022-10-01T19:21:10.003Z,9.39
2022-10-01T19:24:10.033Z,9.38
2022-10-01T19:27:10.038Z,9.38
2022-10-01T19:30:10.056Z,9.39
2022-10-01T19:33:10.069Z,9.38
2022-10-01T19:36:10.112Z,9.38
2022-10-01T19:39:10.116Z,9.37
2022-10-01T19:42:10.120Z,9.37
2022-10-01T19:45:10.138Z,9.36
2022-10-01T19:48:10.159Z,9.36
2022-10-01T19:51:10.174Z,9.37
2022-10-01T19:54:10.220Z,9.36
2022-10-01T19:57:10.203Z,9.37
2022-10-01T20:00:10.223Z,9.36
2022-10-01T20:03:10.235Z,9.36
2022-10-01T20:06:10.262Z,9.35
2022-10-01T20:09:10.278Z,9.35
2022-10-01T20:12:10.301Z,9.35
2022-10-01T20:15:10.291Z,9.34
2022-10-01T20:18:10.299Z,9.4
2022-10-01T20:21:10.313Z,9.4
2022-10-01T20:24:10.342Z,9.33
2022-10-01T20:27:10.332Z,9.32
2022-10-01T20:30:10.371Z,9.32
2022-10-01T20:33:10.361Z,9.33
2022-10-01T20:36:10.383Z,9.32
2022-10-01T20:39:10.428Z,9.32
2022-10-01T20:42:10.411Z,9.32
2022-10-01T20:45:10.422Z,9.31
2022-10-01T20:48:10.459Z,9.31
2022-10-01T20:51:10.445Z,9.3
2022-10-01T20:54:10.471Z,9.24
2022-10-01T20:57:10.465Z,9.24
2022-10-01T21:00:10.483Z,9.23
2022-10-01T21:03:10.506Z,9.23
2022-10-01T21:06:10.543Z,9.22
2022-10-01T21:09:10.544Z,9.22
2022-10-01T21:12:10.557Z,9.21
2022-10-01T21:15:10.569Z,9.15
2022-10-01T21:18:10.589Z,9.15
2022-10-01T21:21:10.607Z,9.15
2022-10-01T21:24:10.656Z,9.15
2022-10-01T21:27:10.642Z,9.1
2022-10-01T21:30:10.653Z,9.1
2022-10-01T21:33:10.668Z,9.1
2022-10-01T21:36:10.695Z,9.11
2022-10-01T21:39:10.710Z,9.16
2022-10-01T21:42:10.738Z,9.15
2022-10-01T21:45:10.723Z,9.15
2022-10-01T21:48:10.732Z,9.14
2022-10-01T21:51:10.755Z,9.14
2022-10-01T21:54:10.803Z,9.14
2022-10-01T21:57:10.792Z,9.14
2022-10-01T22:00:10.837Z,9.15
2022-10-01T22:03:10.826Z,9.14
2022-10-01T22:06:10.842Z,9.13
2022-10-01T22:09:10.877Z,9.13
2022-10-01T22:12:10.880Z,9.13
2022-10-01T22:15:10.888Z,9.12
2022-10-01T22:18:10.925Z,9.12
2022-10-01T22:21:10.915Z,9.08
2022-10-01T22:24:10.933Z,9.07
2022-10-01T22:27:10.944Z,9.07
2022-10-01T22:30:10.953Z,9.07
2022-10-01T22:33:10.967Z,9.08
2022-10-01T22:36:11.010Z,9.09
2022-10-01T22:39:11.021Z,9.08
2022-10-01T22:42:11.019Z,9.08
2022-10-01T22:45:11.040Z,9.08
2022-10-01T22:48:11.061Z,9
2022-10-01T22:51:11.077Z,9.02
2022-10-01T22:54:11.145Z,9.09
2022-10-01T22:57:11.132Z,9.08
2022-10-01T23:00:11.236Z,9.06
2022-10-01T23:03:11.167Z,9.01
2022-10-01T23:06:11.179Z,9.01
2022-10-01T23:09:11.197Z,9
2022-10-01T23:12:11.231Z,9.01
2022-10-01T23:15:11.229Z,9.01
2022-10-01T23:18:11.237Z,9.02
2022-10-01T23:21:11.254Z,9.03
2022-10-01T23:24:11.284Z,8.97
2022-10-01T23:27:11.296Z,9.04
2022-10-01T23:30:11.328Z,9.05
2022-10-01T23:33:11.331Z,9.1
2022-10-01T23:36:11.349Z,9.08
2022-10-01T23:39:11.386Z,9.08
2022-10-01T23:42:11.398Z,9.06
2022-10-01T23:45:11.423Z,9.06
2022-10-01T23:48:11.458Z,8.99
2022-10-01T23:51:11.458Z,9.01
2022-10-01T23:54:11.518Z,9
2022-10-01T23:57:11.500Z,9
